Terminal Aerodrome Forecast
Issued by NWS

Home | Current Version | Previous Version | Graphics & Text | Print | Product List | Glossary On
Versions: 1 2 3 4 5 6 7 8 9 10 11 12 13 14 15 16 17 18 19 20
000
FTUS41 KCLE 161100 RRA
TAFFDY
TAF
KFDY 161145Z 1612/1712 16008KT 6SM -RA BR SCT012 OVC025
      TEMPO 1612/1614 18006KT 4SM -RA BR OVC008
     FM161400 22008KT 4SM BR VCSH OVC006
     FM170000 25012G22KT P6SM OVC008
     FM170500 25015G25KT P6SM BKN018=

USA.gov is the U.S. government's official web portal to all federal, state and local government web resources and services.